Sochi International Airport
URSS : now visible

Airfield :











YOU CAN JOIN US ON...

 
LOGIN :

Register | Disclaimer

   EN    FR    IT 

 









Legend :    VFR   Marginal VFR   IFR   Intensive IFR   Very Intensive IFR
Visi :
Ceiling :
>= 8 km
>= 3000ft
5 to 8 km
1000 to 3000 ft
1500m to 5 km
500 to 1000 ft
800 to 1500m
200 to 500 ft
< 800m
< 200 ft
Symbols :   Thunderstorms  Fog  Heavy snow  Heavy precipitations  Wind > 20 kt






- Airport Elevation : 89 ft
- IATA code : AER


URSS - Sochi International

CURRENT METAR :
  • 221730Z 05002MPS 9999 NSC 15/12 Q1023 R02/010070 R06/010070 NOSIG RMK R06/00000MPS QFE766

EXPIRED METARs :
  • 221700Z 06002MPS 9999 NSC 15/12 Q1023 R02/010070 R06/010070 NOSIG RMK R06/00000MPS QFE766
  • 221630Z 04003MPS 9999 NSC 16/12 Q1023 R02/010070 R06/010070 NOSIG RMK R06/00000MPS QFE766
  • 221600Z 05002MPS 9999 NSC 16/12 Q1023 R02/010070 R06/010070 NOSIG RMK R06/00000MPS QFE766
  • 221530Z 04002MPS 9999 NSC 16/12 Q1023 R02/010070 R06/010070 NOSIG RMK R06/35001G04MPS QFE766
  • 221500Z 32001MPS 9999 NSC 18/11 Q1023 R02/010070 R06/010070 NOSIG RMK R06/34002G06MPS QFE766

TAF TAF URSS
Valid from the 22 at 18:00 until the 23 at 18:00 UTC


221656Z 2218/2318 05004G09MPS 9999 SCT100
BECMG 2221/2223 04007MPS NSC
BECMG 2307/2308 18003G08MPS
BECMG 2309/2311 23003G08MPS FEW040
BECMG 2312/2313 27003G08MPS
BECMG 2315/2317 05003G08MPS SCT100
URRV FIR / Europe



MET'MAP, your aeronautical weather chart ! - Copyright ORBIFLY December 2007 - Disclaimer

ORBIFLY MET'MAP TEAM :

Programming & Development : Alexandra Zaïnal
Concept & original design : Baudouin d'Aumeries
Assistance for programming : Marc-Olivier Méhu
Technical & hardware support : Manuel Goepfert

Contact : metmap@orbifly.com




SOURCES & CREDITS :

   NOAA       Earth
Advisory